createdAt,value
2024-03-29T00:00:42.000Z,5.496093749999997
2024-03-29T00:01:42.000Z,5.8183593750000036
2024-03-29T00:02:42.000Z,4.529296875
2024-03-29T00:03:42.000Z,6.462890624999995
2024-03-29T00:04:43.000Z,5.496093749999997
2024-03-29T00:05:43.000Z,5.8183593750000036
2024-03-29T00:06:43.000Z,5.496093749999997
2024-03-29T00:07:43.000Z,5.8183593750000036
2024-03-29T00:08:43.000Z,5.8183593750000036
2024-03-29T00:09:44.000Z,5.8183593750000036
2024-03-29T00:10:44.000Z,6.140625
2024-03-29T00:11:44.000Z,7.107421874999997
2024-03-29T00:12:44.000Z,5.8183593750000036
2024-03-29T00:13:44.000Z,7.751953125
2024-03-29T00:14:44.000Z,6.785156250000002
2024-03-29T00:15:45.000Z,5.8183593750000036
2024-03-29T00:16:45.000Z,5.8183593750000036
2024-03-29T00:17:45.000Z,5.496093749999997
2024-03-29T00:18:45.000Z,5.173828125000002
2024-03-29T00:19:45.000Z,6.140625
2024-03-29T00:20:46.000Z,5.8183593750000036
2024-03-29T00:21:46.000Z,6.140625
2024-03-29T00:22:46.000Z,6.140625
2024-03-29T00:23:46.000Z,6.462890624999995
2024-03-29T00:24:47.000Z,5.496093749999997
2024-03-29T00:25:47.000Z,6.140625
2024-03-29T00:26:47.000Z,5.8183593750000036
2024-03-29T00:27:47.000Z,6.462890624999995
2024-03-29T00:28:47.000Z,5.173828125000002
2024-03-29T00:29:48.000Z,5.8183593750000036
2024-03-29T00:30:48.000Z,5.496093749999997
2024-03-29T00:31:48.000Z,7.107421874999997
2024-03-29T00:32:48.000Z,6.462890624999995
2024-03-29T00:33:48.000Z,5.8183593750000036
2024-03-29T00:34:49.000Z,5.8183593750000036
2024-03-29T00:35:49.000Z,5.8183593750000036
2024-03-29T00:36:49.000Z,5.8183593750000036
2024-03-29T00:37:49.000Z,5.496093749999997
2024-03-29T00:38:50.000Z,6.140625
2024-03-29T00:39:50.000Z,5.8183593750000036
2024-03-29T00:40:50.000Z,6.140625
2024-03-29T00:41:50.000Z,4.529296875
2024-03-29T00:42:50.000Z,5.8183593750000036
2024-03-29T00:43:50.000Z,7.107421874999997
2024-03-29T00:44:51.000Z,5.8183593750000036
2024-03-29T00:45:51.000Z,6.140625
2024-03-29T00:46:51.000Z,5.8183593750000036
2024-03-29T00:47:51.000Z,4.2070312500000036
2024-03-29T00:48:51.000Z,6.140625
2024-03-29T00:49:51.000Z,6.140625
2024-03-29T00:50:52.000Z,4.851562499999995
2024-03-29T00:51:52.000Z,6.462890624999995
2024-03-29T00:52:52.000Z,5.8183593750000036
2024-03-29T00:53:52.000Z,6.785156250000002
2024-03-29T00:54:53.000Z,6.462890624999995
2024-03-29T00:55:53.000Z,6.785156250000002
2024-03-29T00:56:53.000Z,6.140625
2024-03-29T00:57:53.000Z,6.140625
2024-03-29T00:58:53.000Z,6.462890624999995
2024-03-29T00:59:54.000Z,5.8183593750000036
2024-03-29T01:00:54.000Z,5.8183593750000036
2024-03-29T01:01:54.000Z,5.496093749999997
2024-03-29T01:02:54.000Z,6.140625
2024-03-29T01:03:54.000Z,4.851562499999995
2024-03-29T01:04:55.000Z,5.8183593750000036
2024-03-29T01:05:55.000Z,5.8183593750000036
2024-03-29T01:06:55.000Z,5.8183593750000036
2024-03-29T01:07:55.000Z,5.173828125000002
2024-03-29T01:08:55.000Z,6.140625
2024-03-29T01:09:55.000Z,6.462890624999995
2024-03-29T01:10:56.000Z,6.140625
2024-03-29T01:11:56.000Z,5.496093749999997
2024-03-29T01:12:56.000Z,6.462890624999995
2024-03-29T01:13:56.000Z,6.140625
2024-03-29T01:14:57.000Z,6.462890624999995
2024-03-29T01:15:57.000Z,5.496093749999997
2024-03-29T01:16:57.000Z,5.8183593750000036
2024-03-29T01:17:57.000Z,6.140625
2024-03-29T01:18:57.000Z,4.2070312500000036
2024-03-29T01:19:57.000Z,6.140625
2024-03-29T01:20:58.000Z,5.8183593750000036
2024-03-29T01:21:58.000Z,6.140625
2024-03-29T01:22:58.000Z,6.140625
2024-03-29T01:23:58.000Z,6.140625
2024-03-29T01:24:58.000Z,5.173828125000002
2024-03-29T01:25:59.000Z,4.529296875
2024-03-29T01:26:59.000Z,6.462890624999995
2024-03-29T01:27:59.000Z,6.140625
2024-03-29T01:28:59.000Z,6.140625
2024-03-29T01:29:59.000Z,4.529296875
2024-03-29T01:31:00.000Z,7.4296875000000036
2024-03-29T01:32:00.000Z,6.140625
2024-03-29T01:33:00.000Z,6.140625
2024-03-29T01:34:00.000Z,5.8183593750000036
2024-03-29T01:35:01.000Z,6.140625
2024-03-29T01:36:01.000Z,7.107421874999997
2024-03-29T01:37:01.000Z,6.140625
2024-03-29T01:38:01.000Z,6.140625
2024-03-29T01:39:01.000Z,7.751953125
2024-03-29T01:40:02.000Z,6.140625
2024-03-29T01:41:02.000Z,7.751953125
2024-03-29T01:42:02.000Z,5.8183593750000036
2024-03-29T01:43:02.000Z,6.462890624999995
2024-03-29T01:44:02.000Z,6.140625
2024-03-29T01:45:03.000Z,5.8183593750000036
2024-03-29T01:46:03.000Z,7.107421874999997
2024-03-29T01:47:03.000Z,6.140625
2024-03-29T01:48:03.000Z,4.529296875
2024-03-29T01:49:03.000Z,7.4296875000000036
2024-03-29T01:50:04.000Z,6.462890624999995
2024-03-29T01:51:04.000Z,5.8183593750000036
2024-03-29T01:52:04.000Z,4.529296875
2024-03-29T01:53:04.000Z,5.8183593750000036
2024-03-29T01:54:04.000Z,5.8183593750000036
2024-03-29T01:55:05.000Z,7.107421874999997
2024-03-29T01:56:05.000Z,7.4296875000000036
2024-03-29T01:57:05.000Z,5.8183593750000036
2024-03-29T01:58:05.000Z,5.173828125000002
2024-03-29T01:59:06.000Z,5.8183593750000036
2024-03-29T02:00:06.000Z,6.140625
2024-03-29T02:01:06.000Z,5.173828125000002
2024-03-29T02:02:06.000Z,5.496093749999997
2024-03-29T02:03:06.000Z,5.173828125000002
2024-03-29T02:04:06.000Z,6.140625
2024-03-29T02:05:07.000Z,5.8183593750000036
2024-03-29T02:06:07.000Z,5.496093749999997
2024-03-29T02:07:07.000Z,6.140625
2024-03-29T02:08:07.000Z,6.140625
2024-03-29T02:09:07.000Z,5.8183593750000036
2024-03-29T02:10:08.000Z,6.462890624999995
2024-03-29T02:11:08.000Z,5.8183593750000036
2024-03-29T02:12:08.000Z,6.140625
2024-03-29T02:13:08.000Z,6.462890624999995
2024-03-29T02:14:08.000Z,5.8183593750000036
2024-03-29T02:15:09.000Z,5.8183593750000036
2024-03-29T02:16:09.000Z,5.8183593750000036
2024-03-29T02:17:09.000Z,4.529296875
2024-03-29T02:18:09.000Z,7.107421874999997
2024-03-29T02:19:09.000Z,5.496093749999997
2024-03-29T02:20:10.000Z,5.8183593750000036
2024-03-29T02:21:10.000Z,5.8183593750000036
2024-03-29T02:22:10.000Z,6.140625
2024-03-29T02:23:10.000Z,4.2070312500000036
2024-03-29T02:24:11.000Z,5.8183593750000036
2024-03-29T02:25:11.000Z,5.8183593750000036
2024-03-29T02:26:11.000Z,6.140625
2024-03-29T02:27:11.000Z,4.2070312500000036
2024-03-29T02:28:12.000Z,4.2070312500000036
2024-03-29T02:29:12.000Z,5.8183593750000036
2024-03-29T02:30:12.000Z,4.529296875
2024-03-29T02:31:12.000Z,6.140625
2024-03-29T02:32:12.000Z,5.496093749999997
2024-03-29T02:33:12.000Z,6.462890624999995
2024-03-29T02:34:13.000Z,5.173828125000002
2024-03-29T02:35:13.000Z,5.8183593750000036
2024-03-29T02:36:13.000Z,5.496093749999997
2024-03-29T02:37:13.000Z,5.496093749999997
2024-03-29T02:38:14.000Z,5.8183593750000036
2024-03-29T02:39:14.000Z,5.8183593750000036
2024-03-29T02:40:14.000Z,5.8183593750000036
2024-03-29T02:41:14.000Z,5.8183593750000036
2024-03-29T02:42:14.000Z,5.496093749999997
2024-03-29T02:43:14.000Z,5.8183593750000036
2024-03-29T02:44:15.000Z,6.140625
2024-03-29T02:45:15.000Z,5.8183593750000036
2024-03-29T02:46:15.000Z,4.2070312500000036
2024-03-29T02:47:15.000Z,6.140625
2024-03-29T02:48:16.000Z,5.8183593750000036
2024-03-29T02:49:16.000Z,5.496093749999997
2024-03-29T02:50:16.000Z,5.8183593750000036
2024-03-29T02:51:16.000Z,6.140625
2024-03-29T02:52:16.000Z,5.8183593750000036
2024-03-29T02:53:17.000Z,4.851562499999995
2024-03-29T02:54:17.000Z,5.8183593750000036
2024-03-29T02:55:17.000Z,5.8183593750000036
2024-03-29T02:56:17.000Z,5.496093749999997
2024-03-29T02:57:17.000Z,5.8183593750000036
2024-03-29T02:58:18.000Z,7.107421874999997
2024-03-29T02:59:18.000Z,5.8183593750000036
2024-03-29T03:00:18.000Z,5.8183593750000036
2024-03-29T03:01:18.000Z,6.140625
2024-03-29T03:02:19.000Z,5.8183593750000036
2024-03-29T03:03:19.000Z,7.4296875000000036
2024-03-29T03:04:19.000Z,7.107421874999997
2024-03-29T03:05:19.000Z,6.140625
2024-03-29T03:06:19.000Z,5.8183593750000036
2024-03-29T03:07:20.000Z,4.2070312500000036
2024-03-29T03:08:20.000Z,6.140625
2024-03-29T03:09:20.000Z,4.529296875
2024-03-29T03:10:20.000Z,5.496093749999997
2024-03-29T03:11:20.000Z,7.107421874999997
2024-03-29T03:12:20.000Z,6.785156250000002
2024-03-29T03:13:21.000Z,7.751953125
2024-03-29T03:14:21.000Z,7.107421874999997
2024-03-29T03:15:21.000Z,7.107421874999997
2024-03-29T03:16:21.000Z,6.140625
2024-03-29T03:17:22.000Z,6.785156250000002
2024-03-29T03:18:22.000Z,4.529296875
2024-03-29T03:19:22.000Z,6.462890624999995
2024-03-29T03:20:22.000Z,5.173828125000002
2024-03-29T03:21:22.000Z,5.8183593750000036
2024-03-29T03:22:23.000Z,6.785156250000002
2024-03-29T03:23:23.000Z,6.140625
2024-03-29T03:24:23.000Z,6.140625
2024-03-29T03:25:23.000Z,6.140625
2024-03-29T03:26:24.000Z,6.140625
2024-03-29T03:27:24.000Z,5.8183593750000036
2024-03-29T03:28:24.000Z,4.851562499999995
2024-03-29T03:29:24.000Z,5.496093749999997
2024-03-29T03:30:24.000Z,5.8183593750000036
2024-03-29T03:31:25.000Z,5.496093749999997
2024-03-29T03:32:25.000Z,4.851562499999995
2024-03-29T03:33:25.000Z,6.462890624999995
2024-03-29T03:34:25.000Z,7.107421874999997
2024-03-29T03:35:25.000Z,5.496093749999997
2024-03-29T03:36:26.000Z,5.496093749999997
2024-03-29T03:37:26.000Z,6.140625
2024-03-29T03:38:26.000Z,6.140625
2024-03-29T03:39:26.000Z,7.107421874999997
2024-03-29T03:40:26.000Z,7.4296875000000036
2024-03-29T03:41:27.000Z,5.173828125000002
2024-03-29T03:42:27.000Z,6.140625
2024-03-29T03:43:27.000Z,6.462890624999995
2024-03-29T03:44:27.000Z,4.529296875
2024-03-29T03:45:27.000Z,5.8183593750000036
2024-03-29T03:46:28.000Z,7.751953125
2024-03-29T03:47:28.000Z,4.2070312500000036
2024-03-29T03:48:28.000Z,5.173828125000002
2024-03-29T03:49:28.000Z,6.462890624999995
2024-03-29T03:50:28.000Z,6.140625
2024-03-29T03:51:29.000Z,5.8183593750000036
2024-03-29T03:52:29.000Z,6.462890624999995
2024-03-29T03:53:29.000Z,5.173828125000002
2024-03-29T03:54:29.000Z,6.140625
2024-03-29T03:55:29.000Z,5.8183593750000036
2024-03-29T03:56:30.000Z,6.140625
2024-03-29T03:57:30.000Z,7.107421874999997
2024-03-29T03:58:30.000Z,6.462890624999995
2024-03-29T03:59:30.000Z,6.140625
2024-03-29T04:00:30.000Z,5.173828125000002
2024-03-29T04:01:31.000Z,6.462890624999995
2024-03-29T04:02:31.000Z,6.140625
2024-03-29T04:03:31.000Z,6.140625
2024-03-29T04:04:31.000Z,6.140625
2024-03-29T04:05:31.000Z,6.140625
2024-03-29T04:06:32.000Z,7.107421874999997
2024-03-29T04:07:32.000Z,6.140625
2024-03-29T04:08:32.000Z,6.140625
2024-03-29T04:09:32.000Z,6.462890624999995
2024-03-29T04:10:32.000Z,6.462890624999995
2024-03-29T04:11:33.000Z,5.173828125000002
2024-03-29T04:12:33.000Z,6.140625
2024-03-29T04:13:33.000Z,6.140625
2024-03-29T04:14:33.000Z,6.462890624999995
2024-03-29T04:15:34.000Z,5.173828125000002
2024-03-29T04:16:34.000Z,6.140625
2024-03-29T04:17:34.000Z,6.462890624999995
2024-03-29T04:18:34.000Z,5.496093749999997
2024-03-29T04:19:34.000Z,7.751953125
2024-03-29T04:20:34.000Z,7.107421874999997
2024-03-29T04:21:35.000Z,8.074218749999995
2024-03-29T04:22:35.000Z,6.462890624999995
2024-03-29T04:23:35.000Z,7.4296875000000036
2024-03-29T04:24:35.000Z,5.496093749999997
2024-03-29T04:25:35.000Z,6.140625
2024-03-29T04:26:36.000Z,6.462890624999995
2024-03-29T04:27:36.000Z,6.785156250000002
2024-03-29T04:28:36.000Z,6.140625
2024-03-29T04:29:36.000Z,7.4296875000000036
2024-03-29T04:30:36.000Z,6.140625
2024-03-29T04:31:36.000Z,6.140625
2024-03-29T04:32:37.000Z,7.751953125
2024-03-29T04:33:37.000Z,6.140625
2024-03-29T04:34:37.000Z,4.851562499999995
2024-03-29T04:35:37.000Z,5.8183593750000036
2024-03-29T04:36:37.000Z,6.140625
2024-03-29T04:37:38.000Z,5.173828125000002
2024-03-29T04:38:38.000Z,7.107421874999997
2024-03-29T04:39:38.000Z,7.107421874999997
2024-03-29T04:40:38.000Z,5.8183593750000036
2024-03-29T04:41:38.000Z,5.8183593750000036
2024-03-29T04:42:39.000Z,6.462890624999995
2024-03-29T04:43:39.000Z,5.173828125000002
2024-03-29T04:44:39.000Z,6.140625
2024-03-29T04:45:39.000Z,6.140625
2024-03-29T04:46:39.000Z,5.496093749999997
2024-03-29T04:47:39.000Z,6.462890624999995
2024-03-29T04:48:40.000Z,5.8183593750000036
2024-03-29T04:49:40.000Z,4.851562499999995
2024-03-29T04:50:40.000Z,5.8183593750000036
2024-03-29T04:51:40.000Z,6.462890624999995
2024-03-29T04:52:40.000Z,4.851562499999995
2024-03-29T04:53:41.000Z,6.140625
2024-03-29T04:54:41.000Z,6.785156250000002
2024-03-29T04:55:41.000Z,8.074218749999995
2024-03-29T04:56:41.000Z,6.462890624999995
2024-03-29T04:57:41.000Z,6.462890624999995
2024-03-29T04:58:42.000Z,5.8183593750000036
2024-03-29T04:59:42.000Z,6.785156250000002
2024-03-29T05:00:42.000Z,6.140625
2024-03-29T05:01:42.000Z,6.462890624999995
2024-03-29T05:02:42.000Z,6.462890624999995
2024-03-29T05:03:43.000Z,6.462890624999995
2024-03-29T05:04:43.000Z,6.462890624999995
2024-03-29T05:05:43.000Z,6.462890624999995
2024-03-29T05:06:43.000Z,5.8183593750000036
2024-03-29T05:07:43.000Z,5.8183593750000036
2024-03-29T05:08:44.000Z,6.785156250000002
2024-03-29T05:09:44.000Z,7.751953125
2024-03-29T05:10:44.000Z,6.785156250000002
2024-03-29T05:11:44.000Z,7.4296875000000036
2024-03-29T05:12:44.000Z,5.173828125000002
2024-03-29T05:13:45.000Z,6.462890624999995
2024-03-29T05:14:45.000Z,6.462890624999995
2024-03-29T05:15:45.000Z,6.785156250000002
2024-03-29T05:16:45.000Z,6.140625
2024-03-29T05:17:45.000Z,5.173828125000002
2024-03-29T05:18:45.000Z,7.4296875000000036
2024-03-29T05:19:46.000Z,7.107421874999997
2024-03-29T05:20:46.000Z,8.074218749999995
2024-03-29T05:21:46.000Z,6.785156250000002
2024-03-29T05:22:46.000Z,8.074218749999995
2024-03-29T05:23:47.000Z,6.140625
2024-03-29T05:24:47.000Z,6.140625
2024-03-29T05:25:47.000Z,6.785156250000002
2024-03-29T05:26:47.000Z,8.074218749999995
2024-03-29T05:27:47.000Z,6.140625
2024-03-29T05:28:47.000Z,7.4296875000000036
2024-03-29T05:29:48.000Z,7.107421874999997
2024-03-29T05:30:48.000Z,6.785156250000002
2024-03-29T05:31:48.000Z,5.8183593750000036
2024-03-29T05:32:48.000Z,7.4296875000000036
2024-03-29T05:33:48.000Z,6.785156250000002
2024-03-29T05:34:48.000Z,6.462890624999995
2024-03-29T05:35:49.000Z,7.107421874999997
2024-03-29T05:36:49.000Z,5.8183593750000036
2024-03-29T05:37:49.000Z,7.107421874999997
2024-03-29T05:38:49.000Z,5.8183593750000036
2024-03-29T05:39:49.000Z,7.107421874999997
2024-03-29T05:40:50.000Z,7.107421874999997
2024-03-29T05:41:50.000Z,8.396484375000002
2024-03-29T05:42:50.000Z,6.462890624999995
2024-03-29T05:43:50.000Z,7.107421874999997
2024-03-29T05:44:51.000Z,8.396484375000002
2024-03-29T05:45:51.000Z,7.751953125
2024-03-29T05:46:51.000Z,6.140625
2024-03-29T05:47:51.000Z,7.4296875000000036
2024-03-29T05:48:51.000Z,7.107421874999997
2024-03-29T05:49:52.000Z,7.4296875000000036
2024-03-29T05:50:52.000Z,8.718749999999996
2024-03-29T05:51:52.000Z,6.785156250000002
2024-03-29T05:52:52.000Z,5.8183593750000036
2024-03-29T05:53:52.000Z,7.4296875000000036
2024-03-29T05:54:53.000Z,5.496093749999997
2024-03-29T05:55:53.000Z,8.396484375000002
2024-03-29T05:56:53.000Z,7.107421874999997
2024-03-29T05:57:54.000Z,6.785156250000002
2024-03-29T05:58:54.000Z,6.140625
2024-03-29T05:59:54.000Z,6.785156250000002
2024-03-29T06:00:54.000Z,7.4296875000000036
2024-03-29T06:01:55.000Z,7.4296875000000036
2024-03-29T06:02:55.000Z,6.462890624999995
2024-03-29T06:03:55.000Z,6.140625
2024-03-29T06:04:55.000Z,6.785156250000002
2024-03-29T06:05:56.000Z,7.751953125
2024-03-29T06:06:56.000Z,8.074218749999995
2024-03-29T06:07:56.000Z,9.36328125
2024-03-29T06:08:56.000Z,6.462890624999995
2024-03-29T06:09:56.000Z,7.4296875000000036
2024-03-29T06:10:57.000Z,7.751953125
2024-03-29T06:11:57.000Z,9.041015625000004
2024-03-29T06:12:57.000Z,8.074218749999995
2024-03-29T06:13:57.000Z,7.751953125
2024-03-29T06:14:57.000Z,7.107421874999997
2024-03-29T06:15:58.000Z,7.751953125
2024-03-29T06:16:58.000Z,8.718749999999996
2024-03-29T06:17:58.000Z,7.751953125
2024-03-29T06:18:58.000Z,7.107421874999997
2024-03-29T06:19:58.000Z,7.751953125
2024-03-29T06:20:59.000Z,6.785156250000002
2024-03-29T06:21:59.000Z,8.074218749999995
2024-03-29T06:22:59.000Z,7.751953125
2024-03-29T06:23:59.000Z,7.751953125
2024-03-29T06:24:59.000Z,7.751953125
2024-03-29T06:26:00.000Z,7.4296875000000036
2024-03-29T06:27:00.000Z,7.4296875000000036
2024-03-29T06:28:00.000Z,8.396484375000002
2024-03-29T06:29:00.000Z,8.074218749999995
2024-03-29T06:30:00.000Z,4.851562499999995
2024-03-29T06:31:00.000Z,8.396484375000002
2024-03-29T06:32:01.000Z,8.074218749999995
2024-03-29T06:33:01.000Z,9.36328125
2024-03-29T06:34:01.000Z,7.751953125
2024-03-29T06:35:01.000Z,9.041015625000004
2024-03-29T06:36:01.000Z,7.751953125
2024-03-29T06:37:02.000Z,9.36328125
2024-03-29T06:38:02.000Z,8.718749999999996
2024-03-29T06:39:02.000Z,6.462890624999995
2024-03-29T06:40:02.000Z,6.785156250000002
2024-03-29T06:41:02.000Z,8.074218749999995
2024-03-29T06:42:03.000Z,8.074218749999995
2024-03-29T06:43:03.000Z,8.074218749999995
2024-03-29T06:44:03.000Z,8.074218749999995
2024-03-29T06:45:03.000Z,8.718749999999996
2024-03-29T06:46:04.000Z,8.074218749999995
2024-03-29T06:47:04.000Z,8.074218749999995
2024-03-29T06:48:04.000Z,7.751953125
2024-03-29T06:49:04.000Z,6.462890624999995
2024-03-29T06:50:04.000Z,8.396484375000002
2024-03-29T06:51:05.000Z,9.041015625000004
2024-03-29T06:52:05.000Z,8.396484375000002
2024-03-29T06:53:05.000Z,9.36328125
2024-03-29T06:54:05.000Z,9.041015625000004
2024-03-29T06:55:05.000Z,7.751953125
2024-03-29T06:56:06.000Z,8.074218749999995
2024-03-29T06:57:06.000Z,8.396484375000002
2024-03-29T06:58:06.000Z,8.396484375000002
2024-03-29T06:59:06.000Z,9.041015625000004
2024-03-29T07:00:07.000Z,8.718749999999996
2024-03-29T07:01:07.000Z,8.396484375000002
2024-03-29T07:02:07.000Z,9.685546874999995
2024-03-29T07:03:07.000Z,8.396484375000002
2024-03-29T07:04:07.000Z,8.718749999999996
2024-03-29T07:05:08.000Z,8.718749999999996
2024-03-29T07:06:08.000Z,8.396484375000002
2024-03-29T07:07:08.000Z,8.718749999999996
2024-03-29T07:08:08.000Z,9.041015625000004
2024-03-29T07:09:08.000Z,8.718749999999996
2024-03-29T07:10:08.000Z,8.718749999999996
2024-03-29T07:11:09.000Z,10.007812500000002
2024-03-29T07:12:09.000Z,8.074218749999995
2024-03-29T07:13:09.000Z,9.685546874999995
2024-03-29T07:14:09.000Z,7.4296875000000036
2024-03-29T07:15:09.000Z,10.007812500000002
2024-03-29T07:16:10.000Z,8.718749999999996
2024-03-29T07:17:10.000Z,10.330078124999996
2024-03-29T07:18:10.000Z,8.718749999999996
2024-03-29T07:19:10.000Z,8.396484375000002
2024-03-29T07:20:10.000Z,9.041015625000004
2024-03-29T07:21:11.000Z,8.074218749999995
2024-03-29T07:22:11.000Z,9.041015625000004
2024-03-29T07:23:11.000Z,7.751953125
2024-03-29T07:24:11.000Z,9.041015625000004
2024-03-29T07:25:11.000Z,9.041015625000004
2024-03-29T07:26:12.000Z,9.041015625000004
2024-03-29T07:27:12.000Z,8.718749999999996
2024-03-29T07:28:12.000Z,8.718749999999996
2024-03-29T07:29:12.000Z,9.041015625000004
2024-03-29T07:30:13.000Z,7.107421874999997
2024-03-29T07:31:13.000Z,8.718749999999996
2024-03-29T07:32:13.000Z,9.041015625000004
2024-03-29T07:33:13.000Z,8.074218749999995
2024-03-29T07:34:14.000Z,9.041015625000004
2024-03-29T07:35:14.000Z,7.4296875000000036
2024-03-29T07:36:14.000Z,8.396484375000002
2024-03-29T07:37:14.000Z,9.685546874999995
2024-03-29T07:38:14.000Z,9.36328125
2024-03-29T07:39:15.000Z,8.074218749999995
2024-03-29T07:40:15.000Z,9.041015625000004
2024-03-29T07:41:15.000Z,9.36328125
2024-03-29T07:42:15.000Z,9.685546874999995
2024-03-29T07:43:16.000Z,9.041015625000004
2024-03-29T07:44:16.000Z,9.041015625000004
2024-03-29T07:45:16.000Z,8.074218749999995
2024-03-29T07:46:16.000Z,9.36328125
2024-03-29T07:47:16.000Z,9.36328125
2024-03-29T07:48:16.000Z,7.751953125
2024-03-29T07:49:17.000Z,9.041015625000004
2024-03-29T07:50:17.000Z,9.041015625000004
2024-03-29T07:51:17.000Z,9.685546874999995
2024-03-29T07:52:17.000Z,10.330078124999996
2024-03-29T07:53:17.000Z,9.041015625000004
2024-03-29T07:54:18.000Z,9.041015625000004
2024-03-29T07:55:18.000Z,9.041015625000004
2024-03-29T07:56:18.000Z,9.041015625000004
2024-03-29T07:57:18.000Z,9.36328125
2024-03-29T07:58:18.000Z,7.751953125
2024-03-29T07:59:19.000Z,10.652343750000004
2024-03-29T08:00:19.000Z,9.041015625000004
2024-03-29T08:01:19.000Z,9.36328125
2024-03-29T08:02:19.000Z,10.007812500000002
2024-03-29T08:03:20.000Z,9.36328125
2024-03-29T08:04:20.000Z,9.685546874999995
2024-03-29T08:05:20.000Z,8.718749999999996
2024-03-29T08:06:20.000Z,9.685546874999995
2024-03-29T08:07:20.000Z,9.041015625000004
2024-03-29T08:08:20.000Z,8.396484375000002
2024-03-29T08:09:21.000Z,10.007812500000002
2024-03-29T08:10:21.000Z,9.041015625000004
2024-03-29T08:11:21.000Z,7.751953125
2024-03-29T08:12:21.000Z,8.396484375000002
2024-03-29T08:13:22.000Z,10.007812500000002
2024-03-29T08:14:22.000Z,9.36328125
2024-03-29T08:15:22.000Z,8.718749999999996
2024-03-29T08:16:22.000Z,7.751953125
2024-03-29T08:17:22.000Z,9.041015625000004
2024-03-29T08:18:23.000Z,7.107421874999997
2024-03-29T08:19:23.000Z,9.041015625000004
2024-03-29T08:20:23.000Z,8.718749999999996
2024-03-29T08:21:23.000Z,9.041015625000004
2024-03-29T08:22:23.000Z,10.007812500000002
2024-03-29T08:23:24.000Z,8.396484375000002
2024-03-29T08:24:24.000Z,9.041015625000004
2024-03-29T08:25:24.000Z,9.041015625000004
2024-03-29T08:26:24.000Z,8.396484375000002
2024-03-29T08:27:24.000Z,7.4296875000000036
2024-03-29T08:28:25.000Z,8.718749999999996
2024-03-29T08:29:25.000Z,10.652343750000004
2024-03-29T08:30:25.000Z,8.718749999999996
2024-03-29T08:31:25.000Z,8.718749999999996
2024-03-29T08:32:25.000Z,8.718749999999996
2024-03-29T08:33:26.000Z,9.041015625000004
2024-03-29T08:34:26.000Z,8.396484375000002
2024-03-29T08:35:26.000Z,9.041015625000004
2024-03-29T08:36:26.000Z,8.718749999999996
2024-03-29T08:37:26.000Z,8.074218749999995
2024-03-29T08:38:27.000Z,9.041015625000004
2024-03-29T08:39:27.000Z,9.041015625000004
2024-03-29T08:40:27.000Z,8.074218749999995
2024-03-29T08:41:27.000Z,9.041015625000004
2024-03-29T08:42:27.000Z,10.330078124999996
2024-03-29T08:43:28.000Z,8.718749999999996
2024-03-29T08:44:28.000Z,10.007812500000002
2024-03-29T08:45:28.000Z,8.396484375000002
2024-03-29T08:46:28.000Z,9.685546874999995
2024-03-29T08:47:28.000Z,10.652343750000004
2024-03-29T08:48:28.000Z,9.685546874999995
2024-03-29T08:49:29.000Z,10.652343750000004
2024-03-29T08:50:29.000Z,8.074218749999995
2024-03-29T08:51:29.000Z,8.718749999999996
2024-03-29T08:52:29.000Z,9.041015625000004
2024-03-29T08:53:30.000Z,9.36328125
2024-03-29T08:54:30.000Z,8.396484375000002
2024-03-29T08:55:30.000Z,9.041015625000004
2024-03-29T08:56:30.000Z,9.36328125
2024-03-29T08:57:30.000Z,9.685546874999995
2024-03-29T08:58:30.000Z,8.396484375000002
2024-03-29T08:59:31.000Z,9.36328125
2024-03-29T09:00:31.000Z,9.36328125
2024-03-29T09:01:31.000Z,9.685546874999995
2024-03-29T09:02:31.000Z,9.685546874999995
2024-03-29T09:03:31.000Z,9.36328125
2024-03-29T09:04:31.000Z,9.685546874999995
2024-03-29T09:05:32.000Z,8.396484375000002
2024-03-29T09:06:32.000Z,8.718749999999996
2024-03-29T09:07:32.000Z,9.36328125
2024-03-29T09:08:32.000Z,10.007812500000002
2024-03-29T09:09:32.000Z,8.396484375000002
2024-03-29T09:10:32.000Z,9.685546874999995
2024-03-29T09:11:33.000Z,9.685546874999995
2024-03-29T09:12:33.000Z,10.652343750000004
2024-03-29T09:13:33.000Z,9.685546874999995
2024-03-29T09:14:33.000Z,8.074218749999995
2024-03-29T09:15:33.000Z,9.685546874999995
2024-03-29T09:16:34.000Z,9.36328125
2024-03-29T09:17:34.000Z,9.041015625000004
2024-03-29T09:18:34.000Z,10.007812500000002
2024-03-29T09:19:34.000Z,9.041015625000004
2024-03-29T09:20:34.000Z,9.36328125
2024-03-29T09:21:35.000Z,10.007812500000002
2024-03-29T09:22:35.000Z,10.330078124999996
2024-03-29T09:23:35.000Z,9.685546874999995
2024-03-29T09:24:35.000Z,9.685546874999995
2024-03-29T09:25:36.000Z,10.330078124999996
2024-03-29T09:26:36.000Z,10.330078124999996
2024-03-29T09:27:36.000Z,10.007812500000002
2024-03-29T09:28:36.000Z,11.296874999999995
2024-03-29T09:29:37.000Z,8.718749999999996
2024-03-29T09:30:37.000Z,9.36328125
2024-03-29T09:31:37.000Z,8.718749999999996
2024-03-29T09:32:38.000Z,11.619140625000002
2024-03-29T09:33:38.000Z,10.007812500000002
2024-03-29T09:34:38.000Z,9.685546874999995
2024-03-29T09:35:38.000Z,10.330078124999996
2024-03-29T09:36:39.000Z,11.296874999999995
2024-03-29T09:37:39.000Z,10.330078124999996
2024-03-29T09:38:39.000Z,10.974609375
2024-03-29T09:39:39.000Z,10.330078124999996
2024-03-29T09:40:40.000Z,10.330078124999996
2024-03-29T09:41:40.000Z,10.330078124999996